Time,TemperatureF,DewpointF,PressureIn,WindDirection,WindDirectionDegrees,WindSpeedMPH,WindSpeedGustMPH,Humidity,HourlyPrecipIn,Conditions,Clouds,dailyrainin,SoftwareType,DateUTC
2013-05-13 00:32:00,66.0,39.0,29.56,WSW,250,3.0,-999.0,37,-99.99,,,-99.99,,2013-05-13 06:32:00,
2013-05-13 00:42:00,66.0,39.0,29.56,WSW,250,3.0,-999.0,37,-99.99,,,-99.99,,2013-05-13 06:42:00,
2013-05-13 00:52:00,66.0,39.0,29.56,WSW,250,3.0,-999.0,37,-99.99,,,-99.99,,2013-05-13 06:52:00,
2013-05-13 01:31:00,63.0,39.0,29.57,North,0,0.0,-999.0,42,-99.99,,,-99.99,,2013-05-13 07:31:00,
2013-05-13 01:42:00,63.0,39.0,29.57,North,0,0.0,-999.0,42,-99.99,,,-99.99,,2013-05-13 07:42:00,
2013-05-13 01:52:00,63.0,39.0,29.57,North,0,0.0,-999.0,42,-99.99,,,-99.99,,2013-05-13 07:52:00,
2013-05-13 02:31:00,59.0,39.0,29.58,WSW,250,1.0,-999.0,47,-99.99,,,-99.99,,2013-05-13 08:31:00,
2013-05-13 02:42:00,59.0,39.0,29.58,WSW,250,1.0,-999.0,47,-99.99,,,-99.99,,2013-05-13 08:42:00,
2013-05-13 02:51:00,59.0,39.0,29.58,WSW,250,1.0,-999.0,47,-99.99,,,-99.99,,2013-05-13 08:51:00,
2013-05-13 03:33:00,59.0,41.0,29.57,North,0,0.0,-999.0,51,-99.99,,,-99.99,,2013-05-13 09:33:00,
2013-05-13 03:42:00,59.0,41.0,29.57,North,0,0.0,-999.0,51,-99.99,,,-99.99,,2013-05-13 09:42:00,
2013-05-13 03:52:00,59.0,41.0,29.57,North,0,0.0,-999.0,51,-99.99,,,-99.99,,2013-05-13 09:52:00,
2013-05-13 04:32:00,57.0,41.0,29.59,North,0,0.0,-999.0,54,-99.99,,,-99.99,,2013-05-13 10:32:00,
2013-05-13 04:42:00,57.0,41.0,29.59,North,0,0.0,-999.0,54,-99.99,,,-99.99,,2013-05-13 10:42:00,
2013-05-13 04:52:00,57.0,41.0,29.59,North,0,0.0,-999.0,54,-99.99,,,-99.99,,2013-05-13 10:52:00,
2013-05-13 06:32:00,54.0,41.0,29.64,North,0,0.0,-999.0,62,-99.99,,,-99.99,,2013-05-13 12:32:00,
2013-05-13 06:42:00,54.0,41.0,29.64,North,0,0.0,-999.0,62,-99.99,,,-99.99,,2013-05-13 12:42:00,
2013-05-13 06:51:00,54.0,41.0,29.64,North,0,0.0,-999.0,62,-99.99,,,-99.99,,2013-05-13 12:51:00,
2013-05-13 07:31:00,54.0,41.0,29.66,North,0,0.0,-999.0,62,-99.99,,,-99.99,,2013-05-13 13:31:00,
2013-05-13 07:42:00,54.0,41.0,29.66,North,0,0.0,-999.0,62,-99.99,,,-99.99,,2013-05-13 13:42:00,
2013-05-13 07:52:00,54.0,41.0,29.66,North,0,0.0,-999.0,62,-99.99,,,-99.99,,2013-05-13 13:52:00,
2013-05-13 08:32:00,59.0,45.0,29.67,SE,130,2.0,-999.0,58,-99.99,,,-99.99,,2013-05-13 14:32:00,
2013-05-13 08:41:00,59.0,45.0,29.67,SE,130,2.0,-999.0,58,-99.99,,,-99.99,,2013-05-13 14:41:00,
2013-05-13 08:51:00,59.0,45.0,29.67,SE,130,2.0,-999.0,58,-99.99,,,-99.99,,2013-05-13 14:51:00,
2013-05-13 09:32:00,68.0,45.0,29.66,West,270,14.0,-999.0,42,-99.99,,,-99.99,,2013-05-13 15:32:00,
2013-05-13 09:42:00,68.0,45.0,29.66,West,270,14.0,-999.0,42,-99.99,,,-99.99,,2013-05-13 15:42:00,
2013-05-13 09:53:00,68.0,45.0,29.66,West,270,14.0,-999.0,42,-99.99,,,-99.99,,2013-05-13 15:53:00,
2013-05-13 10:33:00,73.0,45.0,29.65,West,270,22.0,-999.0,35,-99.99,,,-99.99,,2013-05-13 16:33:00,
2013-05-13 10:42:00,73.0,45.0,29.65,West,270,22.0,-999.0,35,-99.99,,,-99.99,,2013-05-13 16:42:00,
2013-05-13 10:52:00,73.0,45.0,29.65,West,270,22.0,-999.0,35,-99.99,,,-99.99,,2013-05-13 16:52:00,
2013-05-13 11:32:00,77.0,41.0,29.63,West,270,20.0,-999.0,27,-99.99,,,-99.99,,2013-05-13 17:32:00,
2013-05-13 11:42:00,77.0,41.0,29.63,West,270,20.0,-999.0,27,-99.99,,,-99.99,,2013-05-13 17:42:00,
2013-05-13 11:54:00,77.0,41.0,29.63,West,270,20.0,-999.0,27,-99.99,,,-99.99,,2013-05-13 17:54:00,
2013-05-13 14:33:00,86.0,39.0,29.55,West,270,50.0,-999.0,19,-99.99,,,-99.99,,2013-05-13 20:33:00,
2013-05-13 14:44:00,86.0,39.0,29.55,West,270,50.0,-999.0,19,-99.99,,,-99.99,,2013-05-13 20:44:00,
2013-05-13 14:53:00,86.0,39.0,29.55,West,270,50.0,-999.0,19,-99.99,,,-99.99,,2013-05-13 20:53:00,